createdAt,value
2018-09-19T00:00:29.788Z,17.13
2018-09-19T00:02:58.383Z,17.20
2018-09-19T00:05:26.936Z,16.99
2018-09-19T00:07:55.492Z,17.16
2018-09-19T00:10:24.061Z,17.22
2018-09-19T00:12:52.597Z,17.25
2018-09-19T00:15:21.164Z,17.24
2018-09-19T00:17:49.685Z,16.97
2018-09-19T00:20:18.298Z,16.98
2018-09-19T00:22:46.774Z,16.99
2018-09-19T00:25:15.348Z,16.83
2018-09-19T00:27:43.883Z,16.76
2018-09-19T00:30:12.455Z,16.82
2018-09-19T00:32:40.975Z,16.56
2018-09-19T00:35:09.504Z,16.59
2018-09-19T00:37:38.056Z,16.61
2018-09-19T00:40:06.596Z,16.38
2018-09-19T00:42:35.169Z,16.28
2018-09-19T00:45:03.712Z,16.58
2018-09-19T00:47:32.269Z,16.40
2018-09-19T00:50:00.788Z,16.39
2018-09-19T00:52:29.380Z,16.24
2018-09-19T00:54:57.905Z,16.28
2018-09-19T00:57:26.508Z,16.29
2018-09-19T00:59:55.041Z,16.12
2018-09-19T01:02:23.600Z,16.11
2018-09-19T01:04:52.145Z,16.13
2018-09-19T01:07:20.699Z,16.16
2018-09-19T01:09:49.229Z,16.10
2018-09-19T01:12:17.803Z,15.86
2018-09-19T01:14:46.329Z,15.82
2018-09-19T01:17:15.334Z,15.97
2018-09-19T01:19:43.860Z,16.05
2018-09-19T01:22:12.406Z,16.10
2018-09-19T01:24:40.926Z,16.01
2018-09-19T01:27:09.508Z,15.48
2018-09-19T01:29:38.058Z,15.64
2018-09-19T01:32:06.648Z,15.60
2018-09-19T01:34:35.171Z,15.50
2018-09-19T01:37:03.727Z,15.63
2018-09-19T01:39:32.240Z,15.57
2018-09-19T01:42:00.824Z,15.59
2018-09-19T01:44:29.344Z,15.56
2018-09-19T01:46:57.898Z,15.59
2018-09-19T01:49:26.424Z,15.70
2018-09-19T01:51:55.482Z,15.55
2018-09-19T01:54:25.059Z,15.19
2018-09-19T01:56:54.085Z,15.46
2018-09-19T01:59:22.627Z,15.42
2018-09-19T02:01:51.174Z,15.31
2018-09-19T02:04:19.697Z,15.35
2018-09-19T02:06:48.291Z,15.44
2018-09-19T02:09:16.814Z,15.41
2018-09-19T02:11:45.373Z,15.32
2018-09-19T02:14:13.901Z,15.34
2018-09-19T02:16:42.469Z,15.07
2018-09-19T02:19:11.003Z,15.27
2018-09-19T02:21:39.542Z,15.31
2018-09-19T02:24:08.139Z,15.10
2018-09-19T02:26:36.748Z,15.25
2018-09-19T02:29:05.360Z,15.04
2018-09-19T02:31:34.061Z,15.05
2018-09-19T02:34:02.788Z,14.98
2018-09-19T02:36:31.350Z,14.87
2018-09-19T02:39:00.032Z,14.93
2018-09-19T02:41:28.771Z,14.76
2018-09-19T02:43:57.534Z,15.08
2018-09-19T02:46:26.077Z,15.11
2018-09-19T02:49:03.793Z,14.87
2018-09-19T02:51:39.922Z,14.83
2018-09-19T02:54:14.944Z,14.95
2018-09-19T02:56:52.723Z,14.39
2018-09-19T02:59:28.847Z,14.25
2018-09-19T03:02:03.063Z,14.33
2018-09-19T03:04:38.115Z,14.21
2018-09-19T03:07:06.834Z,14.56
2018-09-19T03:09:35.388Z,14.58
2018-09-19T03:12:03.997Z,14.80
2018-09-19T03:14:32.613Z,14.67
2018-09-19T03:17:01.152Z,14.74
2018-09-19T03:19:29.722Z,14.85
2018-09-19T03:21:58.254Z,14.75
2018-09-19T03:24:26.793Z,14.75
2018-09-19T03:26:55.335Z,14.76
2018-09-19T03:29:24.173Z,14.75
2018-09-19T03:31:52.698Z,14.62
2018-09-19T03:34:21.256Z,14.39
2018-09-19T03:36:49.774Z,14.41
2018-09-19T03:39:18.317Z,14.40
2018-09-19T03:41:46.858Z,13.62
2018-09-19T03:44:15.422Z,13.75
2018-09-19T03:46:43.964Z,13.98
2018-09-19T03:49:12.523Z,13.95
2018-09-19T03:51:41.065Z,13.95
2018-09-19T03:54:09.852Z,13.98
2018-09-19T03:56:38.412Z,14.22
2018-09-19T03:59:06.980Z,13.83
2018-09-19T04:01:35.506Z,14.24
2018-09-19T04:04:04.248Z,14.14
2018-09-19T04:06:32.776Z,14.13
2018-09-19T04:09:01.329Z,14.19
2018-09-19T04:11:29.861Z,14.19
2018-09-19T04:13:59.157Z,14.23
2018-09-19T04:16:28.888Z,14.07
2018-09-19T04:18:57.497Z,13.95
2018-09-19T04:21:27.222Z,14.05
2018-09-19T04:23:56.357Z,14.17
2018-09-19T04:26:25.487Z,13.99
2018-09-19T04:28:54.172Z,14.04
2018-09-19T04:31:22.820Z,14.04
2018-09-19T04:33:51.421Z,14.04
2018-09-19T04:36:19.949Z,14.08
2018-09-19T04:38:48.506Z,13.81
2018-09-19T04:41:17.150Z,13.90
2018-09-19T04:43:45.716Z,13.85
2018-09-19T04:46:15.192Z,13.96
2018-09-19T04:48:43.812Z,13.79
2018-09-19T04:51:12.657Z,14.04
2018-09-19T04:53:41.191Z,13.94
2018-09-19T04:56:09.766Z,13.95
2018-09-19T04:58:38.281Z,14.14
2018-09-19T05:01:06.947Z,13.95
2018-09-19T05:03:35.517Z,13.89
2018-09-19T05:06:06.767Z,13.99
2018-09-19T05:08:35.378Z,13.87
2018-09-19T05:11:03.956Z,13.82
2018-09-19T05:13:32.478Z,13.90
2018-09-19T05:16:01.038Z,13.85
2018-09-19T05:18:29.574Z,13.97
2018-09-19T05:20:58.133Z,13.90
2018-09-19T05:23:28.407Z,13.84
2018-09-19T05:25:57.152Z,13.96
2018-09-19T05:28:25.752Z,13.92
2018-09-19T05:30:55.534Z,13.83
2018-09-19T05:33:24.422Z,13.91
2018-09-19T05:35:52.997Z,13.76
2018-09-19T05:38:21.628Z,13.80
2018-09-19T05:40:55.016Z,13.88
2018-09-19T05:43:23.751Z,14.01
2018-09-19T05:45:52.466Z,13.98
2018-09-19T05:48:20.993Z,14.01
2018-09-19T05:50:49.567Z,13.98
2018-09-19T05:53:18.102Z,13.88
2018-09-19T05:55:46.656Z,13.97
2018-09-19T05:58:15.247Z,13.87
2018-09-19T06:00:43.879Z,14.19
2018-09-19T06:03:12.400Z,14.07
2018-09-19T06:05:40.981Z,14.30
2018-09-19T06:08:09.551Z,14.35
2018-09-19T06:10:38.123Z,14.35
2018-09-19T06:13:06.663Z,14.55
2018-09-19T06:15:35.294Z,14.62
2018-09-19T06:18:03.834Z,14.78
2018-09-19T06:20:33.261Z,14.91
2018-09-19T06:23:01.813Z,14.89
2018-09-19T06:25:30.377Z,14.99
2018-09-19T06:27:58.944Z,15.03
2018-09-19T06:30:27.513Z,15.13
2018-09-19T06:32:56.139Z,15.14
2018-09-19T06:35:24.789Z,15.32
2018-09-19T06:37:53.333Z,15.39
2018-09-19T06:40:21.954Z,15.50
2018-09-19T06:42:50.488Z,15.48
2018-09-19T06:45:19.293Z,15.49
2018-09-19T06:47:48.073Z,15.67
2018-09-19T06:50:16.620Z,15.62
2018-09-19T06:52:45.220Z,15.76
2018-09-19T06:55:20.128Z,15.73
2018-09-19T06:57:48.693Z,15.94
2018-09-19T07:00:17.216Z,16.03
2018-09-19T07:02:45.776Z,16.02
2018-09-19T07:05:14.320Z,16.14
2018-09-19T07:07:42.873Z,16.18
2018-09-19T07:10:11.388Z,16.21
2018-09-19T07:12:39.947Z,16.19
2018-09-19T07:15:08.480Z,16.38
2018-09-19T07:17:37.030Z,16.42
2018-09-19T07:20:05.599Z,16.54
2018-09-19T07:22:34.152Z,16.56
2018-09-19T07:25:02.706Z,16.76
2018-09-19T07:27:31.236Z,16.90
2018-09-19T07:29:59.762Z,17.04
2018-09-19T07:32:28.412Z,17.17
2018-09-19T07:34:56.945Z,17.29
2018-09-19T07:37:25.497Z,17.33
2018-09-19T07:39:54.016Z,17.48
2018-09-19T07:42:22.582Z,17.56
2018-09-19T07:44:51.426Z,17.64
2018-09-19T07:47:19.970Z,17.73
2018-09-19T07:49:48.497Z,17.86
2018-09-19T07:52:17.060Z,18.01
2018-09-19T07:54:45.682Z,18.05
2018-09-19T07:57:14.252Z,18.12
2018-09-19T07:59:42.823Z,18.19
2018-09-19T08:02:11.414Z,18.31
2018-09-19T08:04:39.939Z,18.38
2018-09-19T08:07:08.535Z,18.52
2018-09-19T08:09:37.061Z,18.57
2018-09-19T08:12:05.624Z,18.64
2018-09-19T08:14:34.158Z,18.72
2018-09-19T08:17:02.771Z,18.82
2018-09-19T08:19:31.274Z,18.94
2018-09-19T08:21:59.836Z,19.02
2018-09-19T08:24:28.415Z,19.16
2018-09-19T08:26:59.927Z,19.24
2018-09-19T08:29:28.446Z,19.33
2018-09-19T08:31:57.012Z,19.43
2018-09-19T08:34:25.533Z,19.56
2018-09-19T08:36:54.300Z,19.65
2018-09-19T08:39:22.831Z,19.69
2018-09-19T08:41:51.361Z,19.79
2018-09-19T08:44:19.916Z,19.84
2018-09-19T08:46:48.445Z,19.94
2018-09-19T08:49:17.018Z,20.06
2018-09-19T08:51:45.560Z,20.10
2018-09-19T08:54:14.112Z,20.23
2018-09-19T08:56:42.641Z,20.42
2018-09-19T08:59:11.212Z,20.53
2018-09-19T09:01:39.749Z,20.53
2018-09-19T09:04:08.322Z,20.66
2018-09-19T09:06:36.848Z,20.87
2018-09-19T09:09:06.784Z,20.98
2018-09-19T09:11:35.326Z,21.00
2018-09-19T09:14:03.901Z,21.04
2018-09-19T09:16:32.424Z,21.32
2018-09-19T09:19:00.980Z,21.58
2018-09-19T09:21:29.505Z,21.70
2018-09-19T09:23:58.073Z,21.88
2018-09-19T09:26:26.645Z,22.00
2018-09-19T09:28:55.205Z,21.85
2018-09-19T09:31:23.722Z,21.86
2018-09-19T09:33:52.281Z,21.86
2018-09-19T09:36:20.810Z,22.10
2018-09-19T09:38:49.363Z,22.19
2018-09-19T09:41:17.879Z,22.09
2018-09-19T09:43:46.448Z,22.20
2018-09-19T09:46:15.092Z,22.46
2018-09-19T09:48:43.648Z,22.51
2018-09-19T09:51:12.168Z,22.73
2018-09-19T09:53:40.730Z,22.67
2018-09-19T09:56:09.262Z,22.97
2018-09-19T09:58:37.816Z,23.06
2018-09-19T10:01:06.391Z,23.03
2018-09-19T10:03:34.917Z,23.33
2018-09-19T10:06:03.450Z,23.35
2018-09-19T10:08:32.044Z,23.27
2018-09-19T10:11:00.566Z,23.40
2018-09-19T10:13:29.124Z,23.73
2018-09-19T10:15:57.639Z,23.64
2018-09-19T10:18:26.249Z,23.82
2018-09-19T10:20:54.778Z,23.79
2018-09-19T10:23:23.329Z,23.70
2018-09-19T10:25:51.840Z,24.06
2018-09-19T10:28:20.388Z,24.31
2018-09-19T10:30:48.942Z,24.74
2018-09-19T10:33:17.467Z,24.83
2018-09-19T10:35:46.021Z,25.22
2018-09-19T10:38:14.605Z,25.00
2018-09-19T10:40:43.157Z,25.32
2018-09-19T10:43:11.685Z,25.04
2018-09-19T10:45:40.252Z,25.33
2018-09-19T10:48:08.801Z,25.48
2018-09-19T10:50:37.361Z,25.62
2018-09-19T10:53:05.876Z,25.87
2018-09-19T10:55:34.417Z,25.57
2018-09-19T10:58:02.980Z,25.46
2018-09-19T11:00:31.548Z,25.48
2018-09-19T11:03:00.128Z,25.60
2018-09-19T11:05:28.676Z,25.56
2018-09-19T11:07:57.196Z,25.69
2018-09-19T11:10:25.745Z,25.95
2018-09-19T11:12:54.256Z,26.07
2018-09-19T11:15:22.805Z,25.92
2018-09-19T11:17:51.325Z,25.95
2018-09-19T11:20:19.882Z,26.18
2018-09-19T11:22:48.388Z,26.24
2018-09-19T11:25:16.992Z,26.22
2018-09-19T11:27:45.513Z,26.16
2018-09-19T11:30:14.056Z,26.14
2018-09-19T11:32:42.592Z,26.30
2018-09-19T11:35:11.148Z,26.63
2018-09-19T11:37:39.900Z,26.74
2018-09-19T11:40:10.009Z,26.68
2018-09-19T11:42:38.525Z,26.64
2018-09-19T11:45:07.139Z,27.08
2018-09-19T11:47:35.653Z,26.90
2018-09-19T11:50:04.269Z,27.00
2018-09-19T11:52:32.788Z,26.88
2018-09-19T11:55:01.340Z,27.33
2018-09-19T11:57:31.036Z,27.30
2018-09-19T11:59:59.589Z,28.01
2018-09-19T12:02:28.328Z,27.98
2018-09-19T12:04:57.065Z,27.86
2018-09-19T12:07:25.835Z,27.54
2018-09-19T12:09:55.301Z,27.72
2018-09-19T12:12:23.905Z,28.09
2018-09-19T12:14:52.456Z,27.88
2018-09-19T12:17:20.973Z,27.64
2018-09-19T12:19:49.709Z,27.61
2018-09-19T12:22:18.264Z,27.62
2018-09-19T12:24:48.938Z,27.56
2018-09-19T12:27:17.545Z,27.88
2018-09-19T12:29:46.443Z,27.74
2018-09-19T12:32:16.905Z,27.68
2018-09-19T12:34:47.988Z,27.85
2018-09-19T12:37:16.536Z,27.87
2018-09-19T12:39:45.064Z,27.86
2018-09-19T12:42:18.080Z,27.89
2018-09-19T12:44:46.622Z,28.05
2018-09-19T12:47:15.182Z,27.81
2018-09-19T12:49:50.812Z,28.00
2018-09-19T12:52:20.174Z,27.93
2018-09-19T12:54:54.740Z,28.17
2018-09-19T12:57:23.388Z,28.38
2018-09-19T12:59:51.912Z,28.51
2018-09-19T13:02:20.476Z,28.77
2018-09-19T13:04:50.348Z,28.73
2018-09-19T13:07:18.908Z,28.42
2018-09-19T13:09:47.477Z,28.38
2018-09-19T13:12:16.288Z,28.98
2018-09-19T13:14:50.266Z,28.38
2018-09-19T13:17:25.697Z,28.71
2018-09-19T13:20:00.719Z,28.88
2018-09-19T13:22:36.707Z,29.04
2018-09-19T13:25:16.207Z,29.02
2018-09-19T13:27:51.467Z,28.31
2018-09-19T13:30:27.142Z,28.33
2018-09-19T13:33:03.540Z,28.35
2018-09-19T13:35:38.304Z,28.31
2018-09-19T13:38:13.147Z,28.66
2018-09-19T13:40:46.888Z,28.69
2018-09-19T13:43:21.661Z,28.53
2018-09-19T13:45:58.575Z,28.30
2018-09-19T13:48:32.826Z,27.88
2018-09-19T13:51:27.337Z,28.37
2018-09-19T13:54:03.881Z,28.24
2018-09-19T13:56:38.137Z,28.39
2018-09-19T13:59:17.120Z,28.38
2018-09-19T14:01:51.356Z,28.60
2018-09-19T14:04:30.074Z,28.29
2018-09-19T14:07:06.241Z,28.51
2018-09-19T14:09:41.476Z,28.80
2018-09-19T14:12:15.989Z,28.38
2018-09-19T14:14:50.846Z,28.56
2018-09-19T14:17:29.921Z,28.59
2018-09-19T14:20:04.473Z,28.49
2018-09-19T14:22:39.149Z,28.95
2018-09-19T14:25:15.118Z,28.91
2018-09-19T14:27:50.139Z,28.52
2018-09-19T14:30:24.755Z,28.17
2018-09-19T14:33:00.664Z,28.24
2018-09-19T14:35:35.427Z,27.92
2018-09-19T14:38:10.213Z,28.78
2018-09-19T14:40:44.600Z,28.91
2018-09-19T14:43:19.407Z,29.24
2018-09-19T14:45:59.694Z,29.07
2018-09-19T14:48:34.995Z,28.93
2018-09-19T14:51:11.818Z,29.11
2018-09-19T14:53:46.572Z,29.21
2018-09-19T14:59:07.141Z,28.68
2018-09-19T15:01:41.904Z,29.64
2018-09-19T15:04:16.613Z,29.81
2018-09-19T15:06:51.229Z,29.80
2018-09-19T15:09:27.185Z,28.92
2018-09-19T15:12:02.317Z,29.27
2018-09-19T15:14:32.150Z,29.52
2018-09-19T15:17:00.697Z,29.83
2018-09-19T15:19:29.248Z,29.62
2018-09-19T15:21:57.841Z,29.71
2018-09-19T15:24:26.499Z,29.45
2018-09-19T15:26:55.003Z,29.91
2018-09-19T15:29:23.582Z,29.58
2018-09-19T15:31:53.023Z,29.25
2018-09-19T15:34:21.628Z,29.08
2018-09-19T15:36:50.141Z,28.97
2018-09-19T15:39:18.693Z,29.22
2018-09-19T15:41:47.231Z,29.07
2018-09-19T15:44:16.189Z,29.09
2018-09-19T15:46:44.705Z,29.17
2018-09-19T15:49:13.809Z,29.23
2018-09-19T15:51:42.929Z,28.94
2018-09-19T15:54:11.524Z,29.35
2018-09-19T15:56:40.060Z,29.11
2018-09-19T15:59:08.589Z,29.30
2018-09-19T16:01:38.125Z,29.05
2018-09-19T16:04:06.809Z,29.13
2018-09-19T16:06:35.365Z,28.71
2018-09-19T16:09:17.501Z,28.71
2018-09-19T16:11:53.259Z,29.02
2018-09-19T16:14:30.090Z,29.10
2018-09-19T16:17:05.656Z,28.84
2018-09-19T16:19:42.377Z,29.08
2018-09-19T16:22:19.209Z,28.63
2018-09-19T16:24:56.292Z,28.53
2018-09-19T16:27:35.289Z,28.35
2018-09-19T16:30:14.133Z,28.21
2018-09-19T16:32:52.569Z,28.44
2018-09-19T16:35:30.846Z,28.04
2018-09-19T16:38:06.200Z,28.03
2018-09-19T16:40:42.672Z,28.02
2018-09-19T16:43:16.446Z,27.96
2018-09-19T16:45:54.901Z,27.68
2018-09-19T16:48:30.909Z,27.67
2018-09-19T16:51:08.430Z,27.51
2018-09-19T16:53:42.869Z,27.47
2018-09-19T16:56:21.957Z,27.31
2018-09-19T16:58:58.674Z,27.27
2018-09-19T17:01:34.617Z,27.17
2018-09-19T17:04:13.447Z,27.16
2018-09-19T17:06:48.642Z,26.84
2018-09-19T17:09:23.981Z,26.79
2018-09-19T17:12:00.729Z,26.54
2018-09-19T17:14:36.381Z,26.39
2018-09-19T17:17:10.881Z,26.23
2018-09-19T17:20:48.078Z,26.05
2018-09-19T17:23:22.075Z,25.90
2018-09-19T17:26:00.338Z,25.75
2018-09-19T17:28:35.573Z,25.61
2018-09-19T17:31:04.373Z,25.50
2018-09-19T17:33:32.893Z,25.50
2018-09-19T17:36:01.456Z,25.32
2018-09-19T17:38:30.009Z,25.22
2018-09-19T17:40:58.569Z,25.14
2018-09-19T17:43:27.676Z,25.03
2018-09-19T17:45:56.741Z,24.96
2018-09-19T17:48:25.299Z,24.80
2018-09-19T17:50:53.897Z,24.77
2018-09-19T17:53:22.461Z,24.69
2018-09-19T17:55:51.008Z,24.64
2018-09-19T17:58:19.634Z,24.48
2018-09-19T18:00:53.687Z,24.32
2018-09-19T18:03:27.616Z,24.30
2018-09-19T18:06:02.217Z,24.20
2018-09-19T18:08:37.511Z,23.98
2018-09-19T18:11:07.684Z,24.09
2018-09-19T18:13:39.382Z,23.98
2018-09-19T18:16:08.163Z,23.67
2018-09-19T18:18:36.676Z,23.70
2018-09-19T18:21:05.191Z,23.70
2018-09-19T18:23:33.749Z,23.50
2018-09-19T18:26:02.579Z,23.46
2018-09-19T18:28:31.124Z,23.35
2018-09-19T18:31:00.161Z,23.14
2018-09-19T18:33:29.211Z,23.00
2018-09-19T18:36:02.152Z,22.88
2018-09-19T18:38:31.956Z,22.73
2018-09-19T18:41:01.302Z,22.60
2018-09-19T18:43:35.587Z,22.53
2018-09-19T18:46:04.608Z,22.49
2018-09-19T18:48:33.156Z,22.57
2018-09-19T18:51:01.667Z,22.56
2018-09-19T18:53:30.325Z,22.40
2018-09-19T18:56:04.693Z,22.26
2018-09-19T18:58:34.474Z,22.02
2018-09-19T19:01:03.281Z,22.07
2018-09-19T19:03:38.211Z,21.85
2018-09-19T19:06:10.279Z,21.59
2018-09-19T19:08:38.882Z,21.72
2018-09-19T19:11:12.987Z,21.70
2018-09-19T19:13:41.909Z,21.58
2018-09-19T19:16:10.881Z,21.34
2018-09-19T19:18:39.536Z,21.33
2018-09-19T19:21:08.044Z,21.24
2018-09-19T19:23:36.848Z,21.28
2018-09-19T19:26:07.079Z,21.27
2018-09-19T19:28:35.770Z,21.19
2018-09-19T19:31:04.335Z,21.08
2018-09-19T19:33:32.922Z,20.79
2018-09-19T19:36:01.495Z,20.72
2018-09-19T19:38:30.268Z,20.78
2018-09-19T19:40:58.821Z,20.47
2018-09-19T19:43:27.368Z,20.48
2018-09-19T19:46:00.580Z,20.17
2018-09-19T19:48:35.055Z,20.32
2018-09-19T19:51:03.597Z,20.03
2018-09-19T19:53:32.291Z,20.27
2018-09-19T19:56:00.805Z,20.13
2018-09-19T19:58:29.357Z,20.09
2018-09-19T20:00:57.896Z,20.07
2018-09-19T20:03:26.457Z,19.90
2018-09-19T20:05:54.974Z,19.88
2018-09-19T20:08:23.552Z,20.00
2018-09-19T20:10:52.089Z,19.59
2018-09-19T20:13:20.638Z,19.87
2018-09-19T20:15:49.152Z,19.78
2018-09-19T20:18:17.700Z,19.75
2018-09-19T20:20:46.229Z,19.63
2018-09-19T20:23:15.113Z,19.57
2018-09-19T20:25:43.567Z,19.50
2018-09-19T20:28:12.772Z,19.43
2018-09-19T20:30:41.285Z,19.42
2018-09-19T20:33:09.923Z,19.31
2018-09-19T20:35:47.609Z,19.45
2018-09-19T20:38:18.697Z,19.32
2018-09-19T20:40:48.424Z,19.33
2018-09-19T20:43:19.408Z,19.11
2018-09-19T20:45:49.422Z,19.05
2018-09-19T20:48:19.160Z,19.01
2018-09-19T20:50:47.929Z,18.91
2018-09-19T20:53:23.083Z,18.89
2018-09-19T20:55:53.801Z,18.84
2018-09-19T20:58:24.701Z,18.98
2018-09-19T21:00:55.428Z,18.91
2018-09-19T21:03:25.801Z,18.82
2018-09-19T21:05:55.180Z,18.80
2018-09-19T21:08:24.554Z,18.63
2018-09-19T21:10:54.778Z,18.52
2018-09-19T21:13:25.652Z,18.46
2018-09-19T21:16:00.148Z,18.58
2018-09-19T21:18:29.142Z,18.46
2018-09-19T21:20:59.773Z,17.95
2018-09-19T21:23:30.398Z,18.08
2018-09-19T21:26:01.494Z,18.25
2018-09-19T21:28:33.047Z,18.08
2018-09-19T21:31:06.170Z,18.24
2018-09-19T21:33:36.721Z,18.19
2018-09-19T21:36:07.626Z,17.76
2018-09-19T21:38:39.094Z,17.91
2018-09-19T21:41:08.718Z,18.05
2018-09-19T21:43:41.177Z,18.11
2018-09-19T21:46:09.725Z,18.10
2018-09-19T21:48:38.266Z,18.10
2018-09-19T21:51:06.949Z,18.14
2018-09-19T21:53:35.473Z,18.08
2018-09-19T21:56:04.244Z,17.85
2018-09-19T21:58:32.773Z,17.77
2018-09-19T22:01:06.548Z,17.67
2018-09-19T22:03:35.060Z,17.66
2018-09-19T22:06:03.624Z,17.57
2018-09-19T22:08:32.212Z,17.71
2018-09-19T22:11:00.857Z,17.63
2018-09-19T22:13:35.312Z,17.44
2018-09-19T22:16:06.626Z,17.52
2018-09-19T22:18:35.688Z,17.59
2018-09-19T22:21:05.743Z,17.53
2018-09-19T22:23:38.127Z,17.13
2018-09-19T22:26:07.013Z,16.97
2018-09-19T22:28:36.123Z,17.33
2018-09-19T22:31:04.708Z,17.05
2018-09-19T22:33:34.104Z,17.08
2018-09-19T22:36:02.822Z,16.72
2018-09-19T22:38:31.798Z,16.99
2018-09-19T22:41:00.404Z,17.09
2018-09-19T22:43:28.962Z,17.09
2018-09-19T22:45:57.780Z,17.10
2018-09-19T22:48:26.329Z,17.16
2018-09-19T22:50:54.900Z,16.94
2018-09-19T22:53:23.482Z,16.83
2018-09-19T22:55:52.025Z,16.79
2018-09-19T22:58:20.535Z,16.82
2018-09-19T23:00:49.416Z,16.20
2018-09-19T23:03:17.928Z,16.57
2018-09-19T23:05:46.469Z,16.41
2018-09-19T23:08:15.029Z,16.59
2018-09-19T23:10:43.606Z,16.58
2018-09-19T23:13:12.132Z,16.58
2018-09-19T23:15:40.686Z,16.69
2018-09-19T23:18:09.244Z,16.56
2018-09-19T23:20:37.800Z,16.56
2018-09-19T23:23:06.368Z,16.57
2018-09-19T23:25:34.972Z,16.40
2018-09-19T23:28:03.494Z,16.51
2018-09-19T23:30:32.008Z,16.49
2018-09-19T23:33:06.840Z,16.54
2018-09-19T23:35:35.852Z,16.43
2018-09-19T23:38:05.236Z,16.50
2018-09-19T23:40:34.293Z,16.51
2018-09-19T23:43:02.872Z,16.39
2018-09-19T23:45:31.380Z,16.35
2018-09-19T23:47:59.925Z,16.19
2018-09-19T23:50:28.440Z,16.26
2018-09-19T23:52:56.992Z,15.97
2018-09-19T23:55:25.504Z,15.86
2018-09-19T23:57:54.121Z,15.95
